Trantlebeg, United Kingdom

12:02 AM BST on April 25, 2017 (GMT +0100)
Strathy | | Change Station

Elev 100 ft 58.55 °N, 3.99 °W | Updated 2 minutes ago

Overcast
Overcast
41.2 °F
Feels Like 33 °F
N
16.0
Wind Variable Wind from NNW
Gusts 24.0 mph

Today
High -- | Low -- °F
--% Chance of Precip.
Yesterday
High -- | Low -- °F
Precip. -- in
Pressure 29.92 in
Visibility 6.2 miles
Clouds Few 700 ft
Mostly Cloudy 1000 ft
Windchill 33 °F
Dew Point 37 °F
Humidity 84%
Rainfall 0.00 in
Snow Depth Not available.
5:36 AM 8:52 PM
Waning Crescent, 3% visible
METAR EGPC 242250Z AUTO 34019G29KT 9999 -RA FEW007/// BKN010/// 02/01 Q1013 RERA
Pressure 29.92 in
Visibility 6.2 miles
Clouds Few 700 ft
Mostly Cloudy 1000 ft
Windchill 33 °F
Dew Point 37 °F
Humidity 84%
Rainfall 0.00 in
Snow Depth Not available.
5:36 AM 8:52 PM
Waning Crescent, 3% visible
METAR EGPC 242250Z AUTO 34019G29KT 9999 -RA FEW007/// BKN010/// 02/01 Q1013 RERA

Get Severe Weather Alerts

Thanks for signing up!

Be on the lookout for a verification email in your inbox.

You'll start receiving the daily forecast at 8 AM.

×

10-Day Weather Forecast

×

Almanac

Astronomy

Apr. 25, 2017 Rise Set
Actual Time
Civil Twilight
Nautical Twilight
Astronomical Twilight
Moon
Length of Visible Light
Length of Day
Tomorrow will be .
, % of the Moon is Illuminated

Today's Extremes

Country Highs Country Lows

Community

WunderPhotos

WunderBlog® & News

Nearby

Air Quality

  Air Quality AQ Index Pollutant
Not available.

Snow Depth

Station Depth Elevation

Earthquake Activity

City Distance Mag. Time & Date
Minimum magnitude displayed is 2.5.

Coastal Water Temperatures

Place Temperature

Stations

Nearby Weather Stations

Station Location Temp. Windchill Dew Point Humidity Wind Precip. Elev Updated Type